LiveATC.Net - Listen to live air traffic control over the Internet! Contact for advertising information

ICAO: KSBP  IATA: SBP   Airport: San Luis County Regional Airport
City: San Luis Obispo   State/Province: California
Country: United States   Continent: North America
KSBP METAR Weather: KSBP 271256Z AUTO 00000KT 10SM BKN095 06/01 A3004 RMK AO2 SLP172 T00560006
KSBP Flight Activity (FlightAware)
KSBP Airport Info   (AirNav) (iFlightPlanner)
KSBP VFR Sectional Chart   (iFlightPlanner) 
KSBP IFR Low Chart   (iFlightPlanner) 
KSBP Gnd/Twr
Feed Status: UP   Listeners: 2
Listen right in your browser - requires Flash (in browser, requires Flash)
Click here to listen with your own player (launches your MP3 player)
KSBP Gnd/Twr Audio Archives
San Luis Ground121.600
San Luis Tower124.000


Unauthorized use prohibited. See Terms of Service

Find LiveATC Audio Streams

Airport/ARTCC Code

(e.g., 124.400, 128.75)
Site-wide search

Browse LiveATC Feeds
LiveATC Coverage Map
Top 50 LiveATC Feeds
Bad Weather Areas

Offer a LiveATC Feed
Press Inquiries

LiveATC on iPhone
LiveATC on Android

Windows Phone
Windows 8/10

LiveATC Mobile
(Mobile browser)

ATC Audio Archives
Interesting Recordings

LiveATC Forums

Home Page
Make a Donation
LiveATC Bookstore

Terms of Use
Privacy Policy

ATC/Radar Sites
U.S. ARTCC Freqs
Canadian Air Freqs


FAA Airport Status
Nat'l Airspace Status
Arrival Demand Charts

Server Software By:

Please make a donation to help us keep growing!